Time;durP1;ratioP1;P1;durP2;ratioP2;P2;SDS_P1;SDS_P2;PMS_P1;PMS_P2;Temp;Humidity;BMP_temperature;BMP_pressure;BME280_temperature;BME280_humidity;BME280_pressure;Samples;Min_cycle;Max_cycle;Signal;HPM_P1;HPM_P2
2023/07/03 00:00:36;;;;;;;0.75;0.70;;;;;;;;;;5049572;28;20025;-81
2023/07/03 00:03:02;;;;;;;0.80;0.35;;;;;;;;;;5049957;28;20025;-80
2023/07/03 00:05:29;;;;;;;0.22;0.22;;;;;;;;;;5049485;28;20523;-80
2023/07/03 00:07:55;;;;;;;0.57;0.57;;;;;;;;;;5049382;28;20035;-80
2023/07/03 00:10:21;;;;;;;1.85;0.75;;;;;;;;;;5049670;28;20032;-80
2023/07/03 00:12:48;;;;;;;0.65;0.65;;;;;;;;;;5049134;28;20021;-80
2023/07/03 00:15:14;;;;;;;1.25;1.15;;;;;;;;;;5049982;28;20046;-80
2023/07/03 00:17:44;;;;;;;1.55;1.23;;;;;;;;;;5049471;28;20025;-80
2023/07/03 00:20:13;;;;;;;0.20;0.20;;;;;;;;;;5049401;28;20025;-80
2023/07/03 00:22:40;;;;;;;0.63;0.63;;;;;;;;;;5049978;28;20043;-80
2023/07/03 00:25:06;;;;;;;0.68;0.45;;;;;;;;;;5049040;28;20066;-80
2023/07/03 00:27:32;;;;;;;1.17;0.85;;;;;;;;;;5049338;28;20506;-80
2023/07/03 00:29:58;;;;;;;0.10;0.10;;;;;;;;;;5049816;28;20081;-80
2023/07/03 00:32:27;;;;;;;0.85;0.82;;;;;;;;;;5049337;28;20028;-80
2023/07/03 00:34:53;;;;;;;0.90;0.60;;;;;;;;;;5049517;28;20497;-80
2023/07/03 00:37:21;;;;;;;0.22;0.22;;;;;;;;;;5049179;28;20021;-80
2023/07/03 00:39:47;;;;;;;0.20;0.20;;;;;;;;;;5048869;28;20025;-80
2023/07/03 00:42:13;;;;;;;0.80;0.73;;;;;;;;;;5049248;28;20028;-80
2023/07/03 00:44:39;;;;;;;1.02;1.02;;;;;;;;;;5048933;28;20035;-80
2023/07/03 00:47:06;;;;;;;0.20;0.20;;;;;;;;;;5049108;27;20033;-80
2023/07/03 00:49:32;;;;;;;0.75;0.55;;;;;;;;;;5049054;28;20013;-80
2023/07/03 00:51:59;;;;;;;0.45;0.45;;;;;;;;;;5048854;28;20084;-80
2023/07/03 00:54:25;;;;;;;0.32;0.32;;;;;;;;;;5048853;28;20025;-80
2023/07/03 00:56:52;;;;;;;0.20;0.20;;;;;;;;;;5049038;28;20390;-80
2023/07/03 00:59:18;;;;;;;0.40;0.40;;;;;;;;;;5048813;28;20089;-80
2023/07/03 01:02:03;;;;;;;0.80;0.80;;;;;;;;;;5048806;28;20517;-80
2023/07/03 01:04:36;;;;;;;0.28;0.28;;;;;;;;;;5049511;28;20158;-80
2023/07/03 01:07:03;;;;;;;0.55;0.55;;;;;;;;;;5048787;28;20153;-80
2023/07/03 01:09:34;;;;;;;0.10;0.10;;;;;;;;;;5048739;28;20033;-80
2023/07/03 01:12:00;;;;;;;0.80;0.38;;;;;;;;;;5048830;28;20028;-79
2023/07/03 01:14:28;;;;;;;0.25;0.22;;;;;;;;;;5048720;28;20025;-79
2023/07/03 01:16:56;;;;;;;0.57;0.57;;;;;;;;;;5052769;28;20112;-79
2023/07/03 01:19:29;;;;;;;5.68;0.85;;;;;;;;;;5051774;28;20032;-81
2023/07/03 01:21:58;;;;;;;0.93;0.35;;;;;;;;;;5052059;28;20112;-80
2023/07/03 01:24:35;;;;;;;0.20;0.20;;;;;;;;;;5051843;28;20033;-79
2023/07/03 01:27:03;;;;;;;0.28;0.28;;;;;;;;;;5052011;28;20049;-80
2023/07/03 01:29:30;;;;;;;1.60;0.65;;;;;;;;;;5052256;28;20021;-79
2023/07/03 01:31:57;;;;;;;0.30;0.30;;;;;;;;;;5052115;28;20036;-79
2023/07/03 01:34:23;;;;;;;0.15;0.15;;;;;;;;;;5052265;28;20119;-80
2023/07/03 01:36:50;;;;;;;1.10;1.02;;;;;;;;;;5051647;28;20020;-80
2023/07/03 01:39:16;;;;;;;1.25;1.15;;;;;;;;;;5052392;28;20040;-80
2023/07/03 01:41:42;;;;;;;0.65;0.65;;;;;;;;;;5051946;28;20017;-79
2023/07/03 01:44:08;;;;;;;0.47;0.43;;;;;;;;;;5051792;27;20060;-80
2023/07/03 01:46:34;;;;;;;0.50;0.50;;;;;;;;;;5051790;27;20401;-80
2023/07/03 01:49:00;;;;;;;1.02;0.55;;;;;;;;;;5051582;28;20585;-79
2023/07/03 01:51:31;;;;;;;0.50;0.50;;;;;;;;;;5051392;28;20021;-80
2023/07/03 01:54:05;;;;;;;0.40;0.40;;;;;;;;;;5052082;28;20069;-79
2023/07/03 01:56:33;;;;;;;8.07;1.48;;;;;;;;;;5051897;28;20029;-79
2023/07/03 01:59:10;;;;;;;1.13;0.43;;;;;;;;;;5051500;28;20037;-80
2023/07/03 02:01:51;;;;;;;0.20;0.20;;;;;;;;;;5051615;28;20371;-80
2023/07/03 02:04:25;;;;;;;0.25;0.25;;;;;;;;;;5051181;28;20021;-80
2023/07/03 02:06:52;;;;;;;0.17;0.17;;;;;;;;;;5051194;28;20033;-80
2023/07/03 02:09:18;;;;;;;0.95;0.60;;;;;;;;;;5051259;28;20025;-80
2023/07/03 02:11:45;;;;;;;0.60;0.60;;;;;;;;;;5051797;28;20032;-80
2023/07/03 02:14:12;;;;;;;0.10;0.10;;;;;;;;;;5051141;28;20025;-80
2023/07/03 02:16:41;;;;;;;0.20;0.20;;;;;;;;;;5051700;28;20021;-80
2023/07/03 02:19:08;;;;;;;0.38;0.38;;;;;;;;;;5051135;28;20053;-80
2023/07/03 02:21:35;;;;;;;0.52;0.52;;;;;;;;;;5050887;28;20025;-79
2023/07/03 02:24:01;;;;;;;1.00;0.63;;;;;;;;;;5051502;28;20029;-80
2023/07/03 02:26:27;;;;;;;0.75;0.38;;;;;;;;;;5049821;28;20463;-80
2023/07/03 02:28:53;;;;;;;0.10;0.10;;;;;;;;;;5051248;27;20025;-79
2023/07/03 02:31:19;;;;;;;1.17;0.70;;;;;;;;;;5051174;28;20032;-80
2023/07/03 02:33:45;;;;;;;0.90;0.55;;;;;;;;;;5051607;28;20033;-80
2023/07/03 02:36:11;;;;;;;2.05;0.85;;;;;;;;;;5050823;27;20021;-80
2023/07/03 02:38:37;;;;;;;0.30;0.30;;;;;;;;;;5050883;28;20033;-80
2023/07/03 02:41:03;;;;;;;0.52;0.30;;;;;;;;;;5051232;27;20049;-80
2023/07/03 02:43:33;;;;;;;0.40;0.40;;;;;;;;;;5051152;27;20040;-80
2023/07/03 02:46:03;;;;;;;0.80;0.80;;;;;;;;;;5050997;28;20376;-80
2023/07/03 02:48:29;;;;;;;0.55;0.55;;;;;;;;;;5050316;27;20032;-80
2023/07/03 02:50:55;;;;;;;0.40;0.40;;;;;;;;;;5050818;28;20116;-80
2023/07/03 02:53:21;;;;;;;1.17;1.08;;;;;;;;;;5050960;28;20067;-80
2023/07/03 02:55:50;;;;;;;0.77;0.77;;;;;;;;;;5050721;28;20040;-79
2023/07/03 02:58:17;;;;;;;3.67;1.65;;;;;;;;;;5050559;28;20025;-80
2023/07/03 03:00:43;;;;;;;0.20;0.20;;;;;;;;;;5050526;28;20029;-80
2023/07/03 03:03:09;;;;;;;2.42;0.70;;;;;;;;;;5050294;28;20104;-80
2023/07/03 03:05:35;;;;;;;0.50;0.45;;;;;;;;;;5050499;28;20033;-80
2023/07/03 03:08:01;;;;;;;0.65;0.65;;;;;;;;;;5051236;28;20492;-80
2023/07/03 03:10:27;;;;;;;2.88;1.88;;;;;;;;;;5050424;28;20032;-80
2023/07/03 03:12:53;;;;;;;2.28;0.65;;;;;;;;;;5050520;28;20420;-80
2023/07/03 03:15:19;;;;;;;1.83;0.90;;;;;;;;;;5051394;28;20094;-83
2023/07/03 03:17:45;;;;;;;1.65;0.73;;;;;;;;;;5049931;28;20103;-83
2023/07/03 03:20:13;;;;;;;2.65;0.93;;;;;;;;;;5050357;28;20153;-83
2023/07/03 03:22:39;;;;;;;0.95;0.68;;;;;;;;;;5050033;28;20096;-82
2023/07/03 03:25:06;;;;;;;3.15;1.08;;;;;;;;;;5050256;28;20110;-83
2023/07/03 03:27:32;;;;;;;0.68;0.68;;;;;;;;;;5050380;28;20037;-83
2023/07/03 03:29:58;;;;;;;0.85;0.75;;;;;;;;;;5050196;28;20051;-83
2023/07/03 03:32:24;;;;;;;2.17;1.10;;;;;;;;;;5049850;28;20025;-83
2023/07/03 03:34:50;;;;;;;1.17;1.00;;;;;;;;;;5050998;28;20025;-83
2023/07/03 03:37:16;;;;;;;2.15;0.77;;;;;;;;;;5049929;28;20082;-83
2023/07/03 03:39:42;;;;;;;0.60;0.60;;;;;;;;;;5050019;28;20550;-83
2023/07/03 03:42:09;;;;;;;2.88;0.73;;;;;;;;;;5050635;28;20033;-82
2023/07/03 03:44:35;;;;;;;1.40;0.95;;;;;;;;;;5050344;28;20033;-83
2023/07/03 03:47:02;;;;;;;0.63;0.63;;;;;;;;;;5042317;27;20029;-83
2023/07/03 03:49:28;;;;;;;0.43;0.43;;;;;;;;;;5029992;28;20108;-83
2023/07/03 03:51:54;;;;;;;0.93;0.52;;;;;;;;;;5029933;28;20025;-83
2023/07/03 03:54:20;;;;;;;0.82;0.82;;;;;;;;;;5029886;28;20109;-82
2023/07/03 03:56:46;;;;;;;0.55;0.55;;;;;;;;;;5029906;28;20029;-83
2023/07/03 03:59:12;;;;;;;0.30;0.30;;;;;;;;;;5029739;28;20427;-83
2023/07/03 04:01:38;;;;;;;0.73;0.43;;;;;;;;;;5029455;28;20017;-83
2023/07/03 04:04:04;;;;;;;0.35;0.35;;;;;;;;;;5030182;28;20383;-83
2023/07/03 04:06:30;;;;;;;0.90;0.90;;;;;;;;;;5029748;28;20057;-83
2023/07/03 04:08:58;;;;;;;0.85;0.73;;;;;;;;;;5030558;28;20033;-82
2023/07/03 04:11:25;;;;;;;1.02;1.02;;;;;;;;;;5029689;28;20021;-83
2023/07/03 04:13:51;;;;;;;0.17;0.17;;;;;;;;;;5029943;28;20033;-83
2023/07/03 04:16:17;;;;;;;0.17;0.17;;;;;;;;;;5029679;28;20026;-83
2023/07/03 04:18:43;;;;;;;1.15;0.85;;;;;;;;;;5030175;28;20546;-83
2023/07/03 04:21:09;;;;;;;3.47;1.15;;;;;;;;;;5029406;28;20117;-83
2023/07/03 04:23:35;;;;;;;0.25;0.25;;;;;;;;;;5045092;28;20040;-83
2023/07/03 04:26:02;;;;;;;1.80;1.15;;;;;;;;;;5049554;28;20044;-83
2023/07/03 04:28:28;;;;;;;2.53;0.95;;;;;;;;;;5049164;28;20047;-83
2023/07/03 04:30:54;;;;;;;0.80;0.28;;;;;;;;;;5049061;28;20078;-83
2023/07/03 04:33:20;;;;;;;1.58;0.77;;;;;;;;;;5049257;28;20032;-83
2023/07/03 04:35:47;;;;;;;1.20;0.93;;;;;;;;;;5049578;28;20024;-82
2023/07/03 04:38:17;;;;;;;0.60;0.32;;;;;;;;;;5049217;28;20025;-83
2023/07/03 04:40:43;;;;;;;1.85;0.30;;;;;;;;;;5049141;28;20036;-83
2023/07/03 04:43:09;;;;;;;0.47;0.47;;;;;;;;;;5049129;28;20025;-83
2023/07/03 04:45:43;;;;;;;1.42;1.02;;;;;;;;;;5048814;28;20029;-83
2023/07/03 04:48:09;;;;;;;0.75;0.75;;;;;;;;;;5049087;27;20049;-83
2023/07/03 04:50:35;;;;;;;1.77;0.82;;;;;;;;;;5048129;28;20068;-83
2023/07/03 04:53:03;;;;;;;0.55;0.47;;;;;;;;;;5049338;28;20021;-88
2023/07/03 04:55:29;;;;;;;0.52;0.52;;;;;;;;;;5049358;28;20028;-87
2023/07/03 04:57:55;;;;;;;0.32;0.32;;;;;;;;;;5049168;28;20126;-88
2023/07/03 05:00:21;;;;;;;0.32;0.32;;;;;;;;;;5047640;28;20491;-87
2023/07/03 05:02:53;;;;;;;0.30;0.30;;;;;;;;;;5049221;28;20029;-87
2023/07/03 05:05:20;;;;;;;1.80;0.77;;;;;;;;;;5049225;28;20479;-88
2023/07/03 05:07:46;;;;;;;0.77;0.70;;;;;;;;;;5049042;28;20021;-86
2023/07/03 05:10:13;;;;;;;0.60;0.60;;;;;;;;;;5048719;28;20029;-86
2023/07/03 05:12:39;;;;;;;0.65;0.65;;;;;;;;;;5048817;28;20029;-88
2023/07/03 05:15:09;;;;;;;0.50;0.50;;;;;;;;;;5048880;28;20029;-86
2023/07/03 05:17:38;;;;;;;0.10;0.10;;;;;;;;;;5049116;28;20021;-83
2023/07/03 05:20:06;;;;;;;0.40;0.40;;;;;;;;;;5048887;28;20036;-83
2023/07/03 05:22:32;;;;;;;0.40;0.40;;;;;;;;;;5048311;28;20032;-84
2023/07/03 05:25:00;;;;;;;0.40;0.40;;;;;;;;;;5048584;28;20041;-83
2023/07/03 05:27:26;;;;;;;0.55;0.25;;;;;;;;;;5048106;28;20072;-83
2023/07/03 05:29:52;;;;;;;1.15;0.82;;;;;;;;;;5048685;28;20431;-83
2023/07/03 05:32:18;;;;;;;0.57;0.57;;;;;;;;;;5049373;28;20056;-83
2023/07/03 05:34:44;;;;;;;0.30;0.30;;;;;;;;;;5048425;28;20036;-83
2023/07/03 05:37:09;;;;;;;0.20;0.20;;;;;;;;;;5048376;28;20021;-83
2023/07/03 05:39:35;;;;;;;0.65;0.30;;;;;;;;;;5047633;28;20410;-89
2023/07/03 05:42:01;;;;;;;0.20;0.20;;;;;;;;;;5046639;28;20040;-86
2023/07/03 05:44:28;;;;;;;1.45;1.00;;;;;;;;;;5048995;28;20037;-85
2023/07/03 05:46:54;;;;;;;0.35;0.35;;;;;;;;;;5047277;27;20025;-84
2023/07/03 05:49:20;;;;;;;0.88;0.38;;;;;;;;;;5048245;28;20058;-85
2023/07/03 05:51:46;;;;;;;0.45;0.38;;;;;;;;;;5047867;28;20021;-84
2023/07/03 05:54:12;;;;;;;0.30;0.30;;;;;;;;;;5049374;28;20021;-84
2023/07/03 05:56:38;;;;;;;0.35;0.35;;;;;;;;;;5048237;28;20017;-91
2023/07/03 05:59:04;;;;;;;0.15;0.15;;;;;;;;;;5047782;28;20040;-84
2023/07/03 06:01:30;;;;;;;0.73;0.40;;;;;;;;;;5049310;28;20474;-84
2023/07/03 06:03:56;;;;;;;0.68;0.30;;;;;;;;;;5052014;28;20078;-88
2023/07/03 06:06:22;;;;;;;0.47;0.47;;;;;;;;;;5051256;28;20101;-83
2023/07/03 06:08:48;;;;;;;0.65;0.65;;;;;;;;;;5051921;28;20031;-85
2023/07/03 06:11:14;;;;;;;0.22;0.20;;;;;;;;;;5051080;28;20029;-83
2023/07/03 06:13:40;;;;;;;0.40;0.40;;;;;;;;;;5050944;28;20100;-83
2023/07/03 06:16:06;;;;;;;0.05;0.05;;;;;;;;;;5051209;28;20055;-81
2023/07/03 06:18:32;;;;;;;0.60;0.25;;;;;;;;;;5051747;28;20080;-80
2023/07/03 06:20:58;;;;;;;1.02;0.52;;;;;;;;;;5051578;28;20040;-88
2023/07/03 06:23:24;;;;;;;0.17;0.17;;;;;;;;;;5050405;28;20060;-89
2023/07/03 06:25:50;;;;;;;2.83;0.30;;;;;;;;;;5041182;28;20123;-83
2023/07/03 06:28:16;;;;;;;2.03;0.35;;;;;;;;;;5050823;28;20045;-83
2023/07/03 06:30:49;;;;;;;2.60;0.25;;;;;;;;;;5044821;28;20036;-90
2023/07/03 06:33:15;;;;;;;0.05;0.05;;;;;;;;;;5051469;28;20414;-89
2023/07/03 06:35:41;;;;;;;0.00;0.00;;;;;;;;;;5051598;28;20025;-89
2023/07/03 06:38:07;;;;;;;0.00;0.00;;;;;;;;;;5055894;28;20040;-92
2023/07/03 06:40:33;;;;;;;0.03;0.03;;;;;;;;;;5050213;28;20025;-87
2023/07/03 06:42:59;;;;;;;0.10;0.10;;;;;;;;;;5051311;28;20061;-86
2023/07/03 06:45:25;;;;;;;0.15;0.15;;;;;;;;;;5050517;28;20037;-84
2023/07/03 06:47:51;;;;;;;0.38;0.30;;;;;;;;;;5050020;27;20029;-86
2023/07/03 06:50:17;;;;;;;0.22;0.22;;;;;;;;;;5085085;27;20500;-85
2023/07/03 06:52:45;;;;;;;0.73;0.40;;;;;;;;;;5112326;27;20032;-85
2023/07/03 06:55:11;;;;;;;0.03;0.03;;;;;;;;;;5050408;28;20029;-85
2023/07/03 06:57:37;;;;;;;0.22;0.22;;;;;;;;;;5049379;28;20025;-85
2023/07/03 07:00:05;;;;;;;0.38;0.38;;;;;;;;;;5049847;28;20551;-89
2023/07/03 07:02:31;;;;;;;0.10;0.10;;;;;;;;;;5050491;28;20029;-84
2023/07/03 07:04:57;;;;;;;0.45;0.25;;;;;;;;;;5050242;28;20037;-87
2023/07/03 07:07:24;;;;;;;0.10;0.10;;;;;;;;;;5049279;28;20077;-88
2023/07/03 07:09:50;;;;;;;0.20;0.20;;;;;;;;;;5049416;28;20113;-87
2023/07/03 07:12:16;;;;;;;0.10;0.10;;;;;;;;;;5049171;28;20032;-87
2023/07/03 07:14:42;;;;;;;0.50;0.50;;;;;;;;;;5049964;28;20021;-87
2023/07/03 07:17:08;;;;;;;0.55;0.40;;;;;;;;;;5050728;28;20050;-87
2023/07/03 07:19:34;;;;;;;0.20;0.20;;;;;;;;;;5050592;28;20101;-87
2023/07/03 07:22:00;;;;;;;0.10;0.10;;;;;;;;;;5050139;28;20483;-87
2023/07/03 07:24:27;;;;;;;0.28;0.28;;;;;;;;;;5049893;27;20029;-86
2023/07/03 07:26:54;;;;;;;0.80;0.55;;;;;;;;;;5050441;28;20053;-87
2023/07/03 07:29:21;;;;;;;0.20;0.20;;;;;;;;;;5050138;28;20082;-87
2023/07/03 07:31:47;;;;;;;0.38;0.38;;;;;;;;;;5050360;28;20479;-86
2023/07/03 07:34:13;;;;;;;0.10;0.10;;;;;;;;;;5050614;27;20104;-87
2023/07/03 07:36:39;;;;;;;0.55;0.55;;;;;;;;;;5050221;27;20432;-89
2023/07/03 07:39:08;;;;;;;0.10;0.10;;;;;;;;;;5049715;28;20045;-86
2023/07/03 07:41:34;;;;;;;0.30;0.30;;;;;;;;;;5050885;28;20029;-86
2023/07/03 07:44:00;;;;;;;0.57;0.38;;;;;;;;;;5050087;28;20021;-87
2023/07/03 07:46:29;;;;;;;1.67;0.68;;;;;;;;;;5049614;27;20439;-86
2023/07/03 07:48:55;;;;;;;2.72;0.85;;;;;;;;;;5050075;28;20025;-86
2023/07/03 07:51:21;;;;;;;0.35;0.35;;;;;;;;;;5049641;28;20058;-86
2023/07/03 07:53:47;;;;;;;0.20;0.20;;;;;;;;;;5049410;28;20036;-86
2023/07/03 07:56:14;;;;;;;0.28;0.28;;;;;;;;;;5050423;28;20513;-86
2023/07/03 07:58:40;;;;;;;0.35;0.35;;;;;;;;;;5049719;28;20466;-86
2023/07/03 08:01:06;;;;;;;0.20;0.20;;;;;;;;;;5049938;28;20053;-87
2023/07/03 08:03:32;;;;;;;0.60;0.15;;;;;;;;;;5049932;28;20029;-86
2023/07/03 08:05:59;;;;;;;0.22;0.22;;;;;;;;;;5049498;28;20451;-86
2023/07/03 08:08:26;;;;;;;0.32;0.32;;;;;;;;;;5049931;28;20025;-86
2023/07/03 08:10:53;;;;;;;0.25;0.20;;;;;;;;;;5049427;28;20099;-86
2023/07/03 08:13:19;;;;;;;0.30;0.30;;;;;;;;;;5049365;28;20031;-87
2023/07/03 08:15:45;;;;;;;0.47;0.47;;;;;;;;;;5045123;28;20044;-86
2023/07/03 08:18:12;;;;;;;0.10;0.10;;;;;;;;;;5048837;28;20406;-86
2023/07/03 08:20:38;;;;;;;6.13;1.00;;;;;;;;;;5050582;28;20301;-87
2023/07/03 08:23:04;;;;;;;0.25;0.25;;;;;;;;;;5048963;28;20052;-87
2023/07/03 08:25:30;;;;;;;0.20;0.20;;;;;;;;;;5048201;28;20037;-86
2023/07/03 08:27:56;;;;;;;0.30;0.30;;;;;;;;;;5049255;28;20045;-87
2023/07/03 08:30:23;;;;;;;1.00;0.20;;;;;;;;;;5049570;28;20032;-86
2023/07/03 08:32:49;;;;;;;0.10;0.10;;;;;;;;;;5049239;28;20025;-87
2023/07/03 08:35:16;;;;;;;0.30;0.30;;;;;;;;;;5048868;28;20123;-86
2023/07/03 08:37:42;;;;;;;0.50;0.50;;;;;;;;;;5048701;28;20419;-87
2023/07/03 08:40:09;;;;;;;0.35;0.35;;;;;;;;;;5049203;28;20025;-86
2023/07/03 08:42:46;;;;;;;16.48;1.65;;;;;;;;;;5049438;28;20386;-86
2023/07/03 08:45:13;;;;;;;0.03;0.03;;;;;;;;;;5049033;28;20043;-86
2023/07/03 08:47:40;;;;;;;0.13;0.13;;;;;;;;;;5048822;27;20025;-86
2023/07/03 08:50:07;;;;;;;0.43;0.43;;;;;;;;;;5048992;28;20033;-87
2023/07/03 08:52:44;;;;;;;0.35;0.35;;;;;;;;;;5048963;28;20036;-87
2023/07/03 08:55:13;;;;;;;0.20;0.20;;;;;;;;;;5048855;28;20033;-86
2023/07/03 08:57:40;;;;;;;0.03;0.03;;;;;;;;;;5049440;28;20020;-87
2023/07/03 09:00:10;;;;;;;0.00;0.00;;;;;;;;;;5049897;28;20546;-87
2023/07/03 09:02:45;;;;;;;1.42;0.30;;;;;;;;;;5049217;28;20040;-87
2023/07/03 09:05:29;;;;;;;0.17;0.17;;;;;;;;;;5048566;28;20040;-86
2023/07/03 09:07:57;;;;;;;0.28;0.28;;;;;;;;;;5048739;28;20049;-87
2023/07/03 09:10:44;;;;;;;0.63;0.63;;;;;;;;;;5048722;28;20025;-87
2023/07/03 09:13:16;;;;;;;0.20;0.20;;;;;;;;;;5048754;28;20029;-87
2023/07/03 09:15:48;;;;;;;0.30;0.30;;;;;;;;;;5048745;28;20029;-87
2023/07/03 09:18:16;;;;;;;0.10;0.10;;;;;;;;;;5048557;28;20029;-87
2023/07/03 09:20:42;;;;;;;0.03;0.03;;;;;;;;;;5048398;28;20068;-87
2023/07/03 09:23:12;;;;;;;0.20;0.20;;;;;;;;;;5048539;28;20056;-87
2023/07/03 09:25:56;;;;;;;0.10;0.10;;;;;;;;;;5049063;28;20040;-87
2023/07/03 09:28:23;;;;;;;0.32;0.32;;;;;;;;;;5047036;28;20506;-86
2023/07/03 09:30:49;;;;;;;0.10;0.10;;;;;;;;;;5048696;28;20116;-87
2023/07/03 09:33:15;;;;;;;0.22;0.22;;;;;;;;;;5047980;28;20484;-90
2023/07/03 09:35:41;;;;;;;0.00;0.00;;;;;;;;;;5048364;28;20434;-89
2023/07/03 09:38:20;;;;;;;0.75;0.75;;;;;;;;;;5059609;27;20028;-92
2023/07/03 09:40:49;;;;;;;0.35;0.35;;;;;;;;;;5157586;27;20037;-90
2023/07/03 09:43:15;;;;;;;0.10;0.10;;;;;;;;;;5075872;27;20033;-88
2023/07/03 09:45:42;;;;;;;0.30;0.30;;;;;;;;;;5051821;28;20033;-91
2023/07/03 09:48:16;;;;;;;0.22;0.20;;;;;;;;;;5052290;27;20053;-90
2023/07/03 09:50:43;;;;;;;0.10;0.10;;;;;;;;;;5052060;28;20371;-90
2023/07/03 09:53:14;;;;;;;0.47;0.45;;;;;;;;;;5051963;28;20029;-87
2023/07/03 09:55:40;;;;;;;0.32;0.20;;;;;;;;;;5067099;27;20515;-89
2023/07/03 09:58:14;;;;;;;0.35;0.35;;;;;;;;;;5067478;27;20021;-89
2023/07/03 10:00:44;;;;;;;0.17;0.17;;;;;;;;;;5050182;28;20025;-86
2023/07/03 10:03:10;;;;;;;0.57;0.57;;;;;;;;;;5050555;28;20021;-88
2023/07/03 10:05:36;;;;;;;0.30;0.30;;;;;;;;;;5050554;28;20040;-88
2023/07/03 10:08:03;;;;;;;0.32;0.30;;;;;;;;;;5050620;28;20164;-86
2023/07/03 10:10:33;;;;;;;1.10;0.43;;;;;;;;;;5049632;28;20494;-87
2023/07/03 10:13:11;;;;;;;0.30;0.30;;;;;;;;;;5048774;28;20060;-87
2023/07/03 10:15:38;;;;;;;0.10;0.10;;;;;;;;;;5049497;28;20032;-87
2023/07/03 10:18:25;;;;;;;0.30;0.30;;;;;;;;;;5045505;28;20035;-88
2023/07/03 10:20:51;;;;;;;0.05;0.05;;;;;;;;;;5052910;28;20082;-87
2023/07/03 10:23:28;;;;;;;0.30;0.30;;;;;;;;;;5051052;28;20025;-88
2023/07/03 10:25:56;;;;;;;0.38;0.20;;;;;;;;;;5049919;28;20033;-86
2023/07/03 10:28:42;;;;;;;0.30;0.30;;;;;;;;;;5046605;28;20124;-86
2023/07/03 10:31:15;;;;;;;0.28;0.25;;;;;;;;;;5050767;28;20112;-86
2023/07/03 10:33:45;;;;;;;0.70;0.70;;;;;;;;;;5049701;28;20105;-86
2023/07/03 10:36:12;;;;;;;0.30;0.30;;;;;;;;;;5050362;28;20037;-87
2023/07/03 10:38:41;;;;;;;0.30;0.30;;;;;;;;;;5049621;28;20506;-88
2023/07/03 10:41:13;;;;;;;0.10;0.10;;;;;;;;;;5051313;28;20509;-88
2023/07/03 10:43:44;;;;;;;0.22;0.22;;;;;;;;;;5050678;28;20048;-87
2023/07/03 10:46:15;;;;;;;0.25;0.25;;;;;;;;;;5050608;28;20129;-87
2023/07/03 10:48:42;;;;;;;3.50;0.52;;;;;;;;;;5049193;28;20033;-88
2023/07/03 10:51:08;;;;;;;1.02;0.93;;;;;;;;;;5050614;27;20029;-88
2023/07/03 10:53:52;;;;;;;0.25;0.25;;;;;;;;;;5051131;28;20074;-89
2023/07/03 10:56:21;;;;;;;0.52;0.52;;;;;;;;;;5050855;28;20028;-88
2023/07/03 10:59:02;;;;;;;0.90;0.90;;;;;;;;;;5051053;28;20436;-89
2023/07/03 11:01:44;;;;;;;0.15;0.15;;;;;;;;;;5050317;28;20430;-89
2023/07/03 11:04:29;;;;;;;0.10;0.10;;;;;;;;;;5050277;28;20119;-88
2023/07/03 11:06:57;;;;;;;0.47;0.47;;;;;;;;;;5050251;28;20029;-90
2023/07/03 11:09:30;;;;;;;0.30;0.30;;;;;;;;;;5050918;28;20056;-89
2023/07/03 11:12:23;;;;;;;4.40;0.82;;;;;;;;;;5043760;28;20060;-88
2023/07/03 11:15:01;;;;;;;4.97;1.20;;;;;;;;;;5048784;28;20037;-89
2023/07/03 11:17:27;;;;;;;0.10;0.10;;;;;;;;;;5049395;28;20032;-87
2023/07/03 11:20:08;;;;;;;0.70;0.70;;;;;;;;;;5048894;28;20032;-86
2023/07/03 11:22:34;;;;;;;0.15;0.15;;;;;;;;;;5050304;28;20089;-86
2023/07/03 11:25:19;;;;;;;0.30;0.30;;;;;;;;;;5049984;28;20041;-85
2023/07/03 11:27:45;;;;;;;0.30;0.30;;;;;;;;;;5049480;28;20037;-82
2023/07/03 11:30:11;;;;;;;0.88;0.70;;;;;;;;;;5049929;28;20037;-82
2023/07/03 11:32:38;;;;;;;0.30;0.30;;;;;;;;;;5049762;28;20177;-82
2023/07/03 11:35:04;;;;;;;0.95;0.88;;;;;;;;;;5049954;28;20021;-82
2023/07/03 11:37:40;;;;;;;0.25;0.25;;;;;;;;;;5050440;28;20025;-82
2023/07/03 11:40:24;;;;;;;1.30;0.93;;;;;;;;;;5050117;28;20064;-82
2023/07/03 11:42:54;;;;;;;0.32;0.32;;;;;;;;;;5050009;28;20036;-82
2023/07/03 11:45:26;;;;;;;0.00;0.00;;;;;;;;;;5049464;28;20033;-82
2023/07/03 11:47:53;;;;;;;0.15;0.15;;;;;;;;;;5049547;27;20056;-82
2023/07/03 11:50:26;;;;;;;0.32;0.32;;;;;;;;;;5050274;28;20021;-82
2023/07/03 11:52:53;;;;;;;0.47;0.40;;;;;;;;;;5050549;28;20021;-83
2023/07/03 11:55:21;;;;;;;0.17;0.17;;;;;;;;;;5049794;28;20118;-82
2023/07/03 11:57:49;;;;;;;0.30;0.30;;;;;;;;;;5050273;28;20021;-82
2023/07/03 12:00:15;;;;;;;0.20;0.10;;;;;;;;;;5049193;28;20025;-82
2023/07/03 12:02:43;;;;;;;0.82;0.40;;;;;;;;;;5050075;28;20559;-82
2023/07/03 12:05:09;;;;;;;0.30;0.30;;;;;;;;;;5049507;28;20059;-82
2023/07/03 12:07:35;;;;;;;0.75;0.45;;;;;;;;;;5048347;28;20125;-82
2023/07/03 12:10:20;;;;;;;0.40;0.15;;;;;;;;;;5049502;28;20053;-82
2023/07/03 12:13:06;;;;;;;0.30;0.30;;;;;;;;;;5049381;28;20060;-82
2023/07/03 12:15:32;;;;;;;3.20;0.52;;;;;;;;;;5070501;28;20081;-82
2023/07/03 12:18:03;;;;;;;1.55;0.80;;;;;;;;;;5070049;28;20064;-82
2023/07/03 12:20:29;;;;;;;0.10;0.10;;;;;;;;;;5070129;28;20036;-82
2023/07/03 12:22:55;;;;;;;0.52;0.47;;;;;;;;;;5070163;28;20056;-82
2023/07/03 12:25:22;;;;;;;0.30;0.30;;;;;;;;;;5070044;28;20627;-82
2023/07/03 12:27:48;;;;;;;1.08;0.88;;;;;;;;;;5069712;28;20044;-82
2023/07/03 12:30:20;;;;;;;0.25;0.25;;;;;;;;;;5069667;28;20039;-82
2023/07/03 12:32:49;;;;;;;0.00;0.00;;;;;;;;;;5069993;28;20037;-82
2023/07/03 12:35:19;;;;;;;0.90;0.45;;;;;;;;;;5069851;28;20115;-81
2023/07/03 12:38:05;;;;;;;0.43;0.43;;;;;;;;;;5070202;28;20579;-82
2023/07/03 12:40:32;;;;;;;0.17;0.17;;;;;;;;;;5069340;28;20549;-82
2023/07/03 12:42:58;;;;;;;0.80;0.60;;;;;;;;;;5069628;28;20339;-82
2023/07/03 12:45:26;;;;;;;0.20;0.20;;;;;;;;;;5069751;28;20052;-81
2023/07/03 12:48:08;;;;;;;0.50;0.50;;;;;;;;;;5069409;28;20031;-82
2023/07/03 12:50:36;;;;;;;0.35;0.20;;;;;;;;;;5069811;28;20033;-82
2023/07/03 12:53:04;;;;;;;0.28;0.28;;;;;;;;;;5055633;28;20037;-82
2023/07/03 12:55:31;;;;;;;1.20;0.82;;;;;;;;;;5048891;28;20103;-82
2023/07/03 12:57:58;;;;;;;0.57;0.30;;;;;;;;;;5048546;28;20517;-82
2023/07/03 13:00:29;;;;;;;0.10;0.10;;;;;;;;;;5048978;28;20032;-82
2023/07/03 13:03:03;;;;;;;1.00;0.63;;;;;;;;;;5049266;28;20072;-82
2023/07/03 13:05:34;;;;;;;0.10;0.10;;;;;;;;;;5048728;28;20037;-82
2023/07/03 13:08:01;;;;;;;0.32;0.32;;;;;;;;;;5048649;28;20565;-82
2023/07/03 13:10:27;;;;;;;0.10;0.10;;;;;;;;;;5048712;28;20029;-82
2023/07/03 13:13:05;;;;;;;0.17;0.17;;;;;;;;;;5052068;28;20101;-82
2023/07/03 13:15:36;;;;;;;0.30;0.30;;;;;;;;;;5052724;28;20410;-82
2023/07/03 13:18:04;;;;;;;0.20;0.20;;;;;;;;;;5052343;28;20021;-82
2023/07/03 13:20:30;;;;;;;0.10;0.10;;;;;;;;;;5052018;28;20538;-82
2023/07/03 13:22:58;;;;;;;0.32;0.32;;;;;;;;;;5052210;28;20025;-82
2023/07/03 13:25:26;;;;;;;0.30;0.30;;;;;;;;;;5051987;28;20036;-82
2023/07/03 13:27:52;;;;;;;0.05;0.05;;;;;;;;;;5051678;28;20551;-82
2023/07/03 13:30:38;;;;;;;0.10;0.10;;;;;;;;;;5052446;28;20037;-82
2023/07/03 13:33:05;;;;;;;0.32;0.32;;;;;;;;;;5052081;28;20025;-82
2023/07/03 13:35:33;;;;;;;0.10;0.10;;;;;;;;;;5052098;28;20390;-82
2023/07/03 13:38:13;;;;;;;0.10;0.10;;;;;;;;;;5052385;27;20031;-82
2023/07/03 13:40:39;;;;;;;0.13;0.13;;;;;;;;;;5051923;28;20025;-82
2023/07/03 13:43:05;;;;;;;0.45;0.45;;;;;;;;;;5051658;28;20063;-81
2023/07/03 13:45:31;;;;;;;0.10;0.10;;;;;;;;;;5051868;28;20043;-82
2023/07/03 13:47:57;;;;;;;0.20;0.20;;;;;;;;;;5051814;27;20139;-82
2023/07/03 13:50:24;;;;;;;1.35;0.28;;;;;;;;;;5051739;28;20057;-82
2023/07/03 13:52:50;;;;;;;0.15;0.15;;;;;;;;;;5052164;27;20031;-82
2023/07/03 13:55:16;;;;;;;0.70;0.22;;;;;;;;;;5051565;28;20025;-82
2023/07/03 13:57:42;;;;;;;0.00;0.00;;;;;;;;;;5051157;28;20483;-82
2023/07/03 14:00:08;;;;;;;0.00;0.00;;;;;;;;;;5051550;28;20117;-82
2023/07/03 14:02:34;;;;;;;0.40;0.38;;;;;;;;;;5051600;28;20105;-82
2023/07/03 14:05:00;;;;;;;0.57;0.25;;;;;;;;;;5051935;28;20467;-82
2023/07/03 14:07:26;;;;;;;0.60;0.60;;;;;;;;;;5051465;28;20064;-82
2023/07/03 14:09:54;;;;;;;0.30;0.20;;;;;;;;;;5051117;28;20097;-82
2023/07/03 14:12:20;;;;;;;0.40;0.30;;;;;;;;;;5051804;28;20032;-82
2023/07/03 14:14:48;;;;;;;0.35;0.35;;;;;;;;;;5051114;28;20025;-83
2023/07/03 14:17:14;;;;;;;0.43;0.43;;;;;;;;;;5051647;28;20025;-81
2023/07/03 14:19:40;;;;;;;0.00;0.00;;;;;;;;;;5051235;28;20120;-82
2023/07/03 14:22:07;;;;;;;0.20;0.20;;;;;;;;;;5051422;28;20021;-82
2023/07/03 14:24:34;;;;;;;0.52;0.52;;;;;;;;;;5050654;28;20036;-82
2023/07/03 14:27:00;;;;;;;0.10;0.10;;;;;;;;;;5050969;28;20398;-82
2023/07/03 14:29:26;;;;;;;0.10;0.10;;;;;;;;;;5051428;27;20080;-82
2023/07/03 14:31:52;;;;;;;0.35;0.35;;;;;;;;;;5051613;28;20483;-82
2023/07/03 14:34:18;;;;;;;0.20;0.20;;;;;;;;;;5051121;28;20043;-82
2023/07/03 14:36:44;;;;;;;0.38;0.30;;;;;;;;;;5050995;28;20028;-82
2023/07/03 14:39:10;;;;;;;0.00;0.00;;;;;;;;;;5050832;28;20104;-82
2023/07/03 14:41:37;;;;;;;0.45;0.28;;;;;;;;;;5051472;28;20036;-82
2023/07/03 14:44:03;;;;;;;0.20;0.20;;;;;;;;;;5051168;28;20054;-82
2023/07/03 14:46:29;;;;;;;0.20;0.20;;;;;;;;;;5050850;27;20395;-82
2023/07/03 14:48:55;;;;;;;0.20;0.20;;;;;;;;;;5050864;28;20025;-82